Time;durP1;ratioP1;P1;durP2;ratioP2;P2;SDS_P1;SDS_P2;PMS_P1;PMS_P2;Temp;Humidity;BMP_temperature;BMP_pressure;BME280_temperature;BME280_humidity;BME280_pressure;Samples;Min_cycle;Max_cycle;Signal;HPM_P1;HPM_P2
2023/06/28 00:00:35;;;;;;;4.85;1.70;;;;;;;17.71;88.78;100254.94;5586265;31;33768;-68
2023/06/28 00:03:39;;;;;;;4.10;1.80;;;;;;;17.81;87.57;100247.22;5586554;31;33699;-68
2023/06/28 00:06:41;;;;;;;3.95;1.80;;;;;;;17.72;88.04;100249.34;5586206;31;33867;-68
2023/06/28 00:09:44;;;;;;;3.78;1.95;;;;;;;17.72;87.92;100252.03;5586146;31;34639;-68
2023/06/28 00:12:47;;;;;;;5.47;1.70;;;;;;;17.70;89.36;100255.97;5585953;31;34746;-68
2023/06/28 00:15:49;;;;;;;3.67;1.90;;;;;;;17.71;87.81;100252.25;5585963;31;33718;-68
2023/06/28 00:18:52;;;;;;;6.07;1.80;;;;;;;17.70;85.75;100253.28;5585773;31;33378;-68
2023/06/28 00:21:56;;;;;;;6.03;1.95;;;;;;;17.71;87.22;100250.41;5585904;31;34522;-68
2023/06/28 00:25:00;;;;;;;5.30;1.75;;;;;;;17.68;89.42;100244.63;5585907;31;33852;-68
2023/06/28 00:28:04;;;;;;;4.35;1.73;;;;;;;17.77;87.81;100246.81;5585875;31;33454;-68
2023/06/28 00:31:09;;;;;;;7.60;2.03;;;;;;;17.73;84.91;100242.94;5585858;31;33997;-68
2023/06/28 00:34:13;;;;;;;3.87;1.55;;;;;;;17.72;86.62;100241.28;5588332;31;34450;-68
2023/06/28 00:37:16;;;;;;;3.45;1.73;;;;;;;17.67;86.45;100246.47;5588157;31;34237;-69
2023/06/28 00:40:19;;;;;;;5.60;1.92;;;;;;;17.65;91.02;100242.38;5585755;31;33520;-69
2023/06/28 00:43:21;;;;;;;5.47;1.65;;;;;;;17.61;87.80;100251.91;5587621;31;33298;-69
2023/06/28 00:46:24;;;;;;;4.68;1.80;;;;;;;17.66;88.01;100252.09;5585728;31;33518;-69
2023/06/28 00:49:30;;;;;;;4.70;1.55;;;;;;;17.67;85.80;100249.16;5587541;31;34336;-69
2023/06/28 00:52:33;;;;;;;2.70;1.40;;;;;;;17.69;82.65;100244.41;5578077;31;34423;-69
2023/06/28 00:55:36;;;;;;;2.33;1.62;;;;;;;17.76;83.50;100236.31;5587423;31;33637;-69
2023/06/28 00:58:39;;;;;;;6.50;1.70;;;;;;;17.72;81.67;100237.78;5587979;31;33659;-69
2023/06/28 01:01:42;;;;;;;4.60;1.60;;;;;;;17.70;81.80;100247.91;5587527;31;34426;-69
2023/06/28 01:04:46;;;;;;;4.37;1.45;;;;;;;17.64;83.06;100240.72;5587696;31;34399;-69
2023/06/28 01:07:51;;;;;;;5.80;1.87;;;;;;;17.55;85.06;100256.25;5588041;31;35203;-69
2023/06/28 01:10:55;;;;;;;5.90;1.87;;;;;;;17.49;87.05;100250.91;5588023;31;34465;-68
2023/06/28 01:13:58;;;;;;;4.28;1.73;;;;;;;17.47;87.84;100259.19;5588007;31;34744;-68
2023/06/28 01:17:01;;;;;;;4.53;1.50;;;;;;;17.49;87.20;100248.22;5588074;31;33498;-68
2023/06/28 01:20:05;;;;;;;7.32;1.60;;;;;;;17.58;83.03;100247.75;5587977;31;33823;-68
2023/06/28 01:23:08;;;;;;;4.12;1.70;;;;;;;17.69;82.00;100243.59;5588164;31;34415;-69
2023/06/28 01:26:11;;;;;;;3.92;1.50;;;;;;;17.64;82.51;100251.47;5587853;31;33887;-68
2023/06/28 01:29:14;;;;;;;6.12;1.62;;;;;;;17.55;81.78;100244.69;5587794;31;33673;-68
2023/06/28 01:32:17;;;;;;;6.60;1.52;;;;;;;17.59;79.28;100251.28;5587614;31;33793;-68
2023/06/28 01:35:20;;;;;;;2.53;1.50;;;;;;;17.61;82.49;100247.37;5587424;31;34529;-69
2023/06/28 01:38:26;;;;;;;5.32;1.77;;;;;;;17.62;78.81;100246.31;5587571;31;34444;-68
2023/06/28 01:41:29;;;;;;;5.10;1.50;;;;;;;17.67;nan;100256.41;5587546;31;33888;-68
2023/06/28 01:44:35;;;;;;;4.35;1.77;;;;;;;17.71;80.06;100258.44;5587719;31;32844;-68
2023/06/28 01:47:39;;;;;;;4.78;1.52;;;;;;;17.72;78.50;100256.56;5587750;31;33544;-68
2023/06/28 01:50:42;;;;;;;5.35;1.45;;;;;;;17.84;77.60;100262.88;5587493;31;34421;-68
2023/06/28 01:53:45;;;;;;;6.05;1.65;;;;;;;17.87;77.49;100273.19;5587672;31;34368;-68
2023/06/28 01:56:48;;;;;;;4.95;1.80;;;;;;;17.83;76.00;100268.47;5587589;31;33668;-68
2023/06/28 01:59:52;;;;;;;3.37;1.65;;;;;;;17.83;75.83;100263.09;5587720;31;33750;-68
2023/06/28 02:02:57;;;;;;;4.97;1.65;;;;;;;17.81;75.43;100260.66;5587717;31;34245;-68
2023/06/28 02:06:00;;;;;;;6.62;1.60;;;;;;;17.76;75.25;100247.88;5587621;31;33845;-68
2023/06/28 02:09:03;;;;;;;4.37;1.60;;;;;;;17.78;74.09;100250.34;5587586;31;34452;-68
2023/06/28 02:12:06;;;;;;;4.85;1.45;;;;;;;17.83;72.95;100242.44;5587538;31;34322;-68
2023/06/28 02:15:10;;;;;;;4.60;1.73;;;;;;;17.84;73.03;100233.37;5587460;31;34393;-68
2023/06/28 02:18:16;;;;;;;3.60;1.60;;;;;;;17.84;73.67;100241.41;5586604;31;33859;-68
2023/06/28 02:21:19;;;;;;;5.57;1.62;;;;;;;17.78;74.69;100231.53;5587449;31;34595;-68
2023/06/28 02:24:23;;;;;;;3.45;1.65;;;;;;;17.77;74.88;100238.78;5587752;31;31961;-69
2023/06/28 02:27:26;;;;;;;4.28;1.73;;;;;;;17.66;75.23;100238.66;5587491;31;33652;-68
2023/06/28 02:30:28;;;;;;;3.22;1.60;;;;;;;17.62;75.95;100232.09;5587370;31;33624;-68
2023/06/28 02:33:31;;;;;;;3.33;1.40;;;;;;;17.62;78.21;100230.22;5587398;31;34772;-68
2023/06/28 02:36:34;;;;;;;4.90;1.67;;;;;;;17.51;78.50;100228.22;5587299;31;33758;-67
2023/06/28 02:39:39;;;;;;;4.37;1.92;;;;;;;17.45;79.54;100241.66;5587339;31;33526;-67
2023/06/28 02:42:42;;;;;;;4.12;1.77;;;;;;;17.45;81.00;100230.94;5587279;31;33526;-68
2023/06/28 02:45:47;;;;;;;4.03;1.70;;;;;;;17.36;81.53;100230.37;5587613;31;33965;-67
2023/06/28 02:48:50;;;;;;;5.95;1.65;;;;;;;17.34;83.55;100235.94;5587436;31;33926;-68
2023/06/28 02:51:53;;;;;;;6.45;1.83;;;;;;;17.21;84.66;100229.81;5587223;31;33565;-68
2023/06/28 02:54:56;;;;;;;4.32;1.80;;;;;;;17.25;85.23;100233.72;5585574;31;33851;-67
2023/06/28 02:57:59;;;;;;;5.57;1.80;;;;;;;17.19;86.45;100237.25;5587384;31;34451;-68
2023/06/28 03:01:02;;;;;;;7.20;1.75;;;;;;;17.10;86.59;100228.62;5587306;31;34629;-68
2023/06/28 03:04:05;;;;;;;4.03;1.83;;;;;;;17.10;88.23;100236.69;5587108;31;33534;-68
2023/06/28 03:07:15;;;;;;;4.95;1.92;;;;;;;17.13;88.08;100238.13;5587317;31;34438;-68
2023/06/28 03:10:18;;;;;;;4.90;1.90;;;;;;;17.02;89.62;100239.63;5587252;31;33876;-68
2023/06/28 03:13:22;;;;;;;2.50;1.58;;;;;;;16.98;90.07;100240.25;5587038;31;33647;-68
2023/06/28 03:16:25;;;;;;;4.25;1.85;;;;;;;16.96;93.80;100232.41;5586329;31;33826;-68
2023/06/28 03:19:28;;;;;;;6.80;2.00;;;;;;;16.93;93.31;100240.91;5586382;31;33511;-68
2023/06/28 03:22:30;;;;;;;5.65;1.87;;;;;;;16.86;99.04;100240.91;5586744;31;33517;-68
2023/06/28 03:25:33;;;;;;;7.55;2.10;;;;;;;16.87;92.84;100237.19;5586725;31;33847;-68
2023/06/28 03:28:36;;;;;;;6.57;1.70;;;;;;;16.92;93.27;100242.75;5587080;31;33648;-68
2023/06/28 03:31:39;;;;;;;5.60;1.80;;;;;;;16.94;93.67;100237.97;5586757;31;33742;-68
2023/06/28 03:34:43;;;;;;;7.90;2.08;;;;;;;17.07;94.04;100237.13;5586938;31;33406;-69
2023/06/28 03:37:50;;;;;;;6.60;1.80;;;;;;;17.04;92.61;100242.88;5586597;31;33608;-69
2023/06/28 03:40:53;;;;;;;5.35;1.77;;;;;;;17.07;91.16;100244.34;5586506;31;33581;-69
2023/06/28 03:43:55;;;;;;;5.57;1.52;;;;;;;17.05;90.91;100241.84;5586551;31;34473;-69
2023/06/28 03:46:58;;;;;;;6.95;1.98;;;;;;;17.11;90.88;100238.34;5586454;31;33965;-69
2023/06/28 03:50:02;;;;;;;5.03;1.80;;;;;;;17.09;93.44;100239.59;5586218;31;33679;-69
2023/06/28 03:53:04;;;;;;;2.62;1.83;;;;;;;17.12;90.71;100239.97;5586486;31;33486;-68
2023/06/28 03:56:07;;;;;;;11.82;1.90;;;;;;;17.16;94.17;100243.06;5586590;31;34267;-67
2023/06/28 03:59:11;;;;;;;7.82;2.08;;;;;;;17.20;88.48;100242.41;5586292;31;33860;-68
2023/06/28 04:02:14;;;;;;;4.03;1.85;;;;;;;17.25;89.80;100239.91;5585496;31;33741;-68
2023/06/28 04:05:17;;;;;;;7.00;1.70;;;;;;;17.26;85.43;100244.25;5586177;31;33544;-67
2023/06/28 04:08:19;;;;;;;8.02;1.60;;;;;;;17.30;86.45;100245.44;5588920;31;33577;-68
2023/06/28 04:11:22;;;;;;;9.30;2.00;;;;;;;17.32;88.81;100247.94;5588825;31;33849;-67
2023/06/28 04:14:25;;;;;;;5.75;1.80;;;;;;;17.46;90.67;100246.81;5588512;31;33749;-68
2023/06/28 04:17:28;;;;;;;6.15;1.73;;;;;;;17.48;90.48;100259.97;5587336;31;33732;-68
2023/06/28 04:20:31;;;;;;;4.40;1.90;;;;;;;17.57;90.49;100256.03;5588349;31;34396;-68
2023/06/28 04:23:34;;;;;;;7.80;2.12;;;;;;;17.52;86.44;100261.22;5588434;31;34671;-68
2023/06/28 04:26:36;;;;;;;5.12;1.90;;;;;;;17.61;87.34;100266.16;5588500;31;33490;-67
2023/06/28 04:29:39;;;;;;;11.23;2.08;;;;;;;17.63;87.54;100269.41;5588473;31;33874;-67
2023/06/28 04:32:45;;;;;;;5.35;1.92;;;;;;;17.49;86.49;100269.69;5588350;31;34041;-68
2023/06/28 04:35:51;;;;;;;8.77;1.83;;;;;;;17.57;86.42;100272.94;5588266;31;33734;-68
2023/06/28 04:38:56;;;;;;;7.93;1.87;;;;;;;17.52;90.19;100274.63;5588588;31;34861;-68
2023/06/28 04:41:59;;;;;;;6.87;2.03;;;;;;;17.48;90.76;100268.03;5588123;31;33830;-68
2023/06/28 04:45:02;;;;;;;3.37;1.73;;;;;;;17.58;89.23;100263.03;5587989;31;34066;-68
2023/06/28 04:48:06;;;;;;;5.75;2.00;;;;;;;17.37;90.49;100275.75;5588247;31;33630;-68
2023/06/28 04:51:09;;;;;;;3.90;1.77;;;;;;;17.39;91.63;100270.97;5587922;31;33818;-68
2023/06/28 04:54:12;;;;;;;7.35;2.10;;;;;;;17.55;90.17;100266.16;5575154;31;33428;-68
2023/06/28 04:57:16;;;;;;;8.23;2.50;;;;;;;17.64;91.47;100268.38;5568219;32;33825;-68
2023/06/28 05:00:19;;;;;;;7.25;1.92;;;;;;;17.77;91.60;100280.87;5568444;32;33581;-68
2023/06/28 05:03:26;;;;;;;5.75;1.92;;;;;;;17.73;90.57;100279.69;5568421;32;34865;-68
2023/06/28 05:06:29;;;;;;;4.12;1.83;;;;;;;17.93;89.77;100282.22;5568406;31;34288;-68
2023/06/28 05:09:33;;;;;;;9.07;2.03;;;;;;;17.78;88.27;100286.03;5584062;31;33816;-67
2023/06/28 05:12:36;;;;;;;6.03;2.17;;;;;;;17.52;93.62;100285.38;5587859;31;35425;-69
2023/06/28 05:15:39;;;;;;;5.87;2.50;;;;;;;17.29;95.23;100284.03;5587865;31;33433;-68
2023/06/28 05:18:42;;;;;;;7.10;2.08;;;;;;;17.57;96.20;100293.59;5587170;31;34427;-67
2023/06/28 05:21:44;;;;;;;8.27;2.70;;;;;;;17.42;97.17;100296.56;5587627;31;33846;-67
2023/06/28 05:24:48;;;;;;;5.22;2.22;;;;;;;17.29;98.30;100296.59;5587242;31;33717;-67
2023/06/28 05:27:50;;;;;;;8.23;2.20;;;;;;;17.09;96.79;100301.25;5587637;31;33540;-68
2023/06/28 05:30:53;;;;;;;7.32;2.10;;;;;;;17.58;94.49;100311.31;5587418;31;33835;-67
2023/06/28 05:33:56;;;;;;;7.97;2.30;;;;;;;17.12;97.90;100298.97;5587038;31;33672;-68
2023/06/28 05:36:59;;;;;;;4.95;2.30;;;;;;;17.16;97.28;100307.38;5577747;31;33581;-68
2023/06/28 05:40:01;;;;;;;6.85;2.42;;;;;;;17.09;99.13;100304.72;5576392;31;33561;-68
2023/06/28 05:43:04;;;;;;;10.50;2.17;;;;;;;17.33;99.46;100297.84;5584170;31;33777;-68
2023/06/28 05:46:07;;;;;;;7.60;2.15;;;;;;;17.33;97.90;100295.16;5586766;31;34490;-68
2023/06/28 05:49:11;;;;;;;10.23;2.40;;;;;;;17.55;95.64;100309.06;5586694;31;34018;-68
2023/06/28 05:52:13;;;;;;;5.82;2.00;;;;;;;17.28;99.17;100305.72;5586600;31;33803;-67
2023/06/28 05:55:16;;;;;;;6.55;1.83;;;;;;;17.21;96.00;100294.16;5584968;31;34526;-68
2023/06/28 05:58:19;;;;;;;10.65;2.12;;;;;;;17.24;95.80;100304.47;5587512;31;33825;-68
2023/06/28 06:01:25;;;;;;;7.28;1.90;;;;;;;17.56;92.11;100292.75;5587434;31;33742;-67
2023/06/28 06:04:28;;;;;;;4.32;1.83;;;;;;;17.24;90.58;100291.87;5586937;31;33850;-68
2023/06/28 06:07:34;;;;;;;5.72;2.00;;;;;;;17.42;90.94;100301.09;5587259;31;34720;-67
2023/06/28 06:10:37;;;;;;;9.50;2.30;;;;;;;17.81;88.36;100317.00;5587514;31;33617;-69
2023/06/28 06:13:39;;;;;;;2.87;1.50;;;;;;;17.39;91.50;100310.38;5585772;31;34492;-68
2023/06/28 06:16:42;;;;;;;6.75;1.90;;;;;;;17.57;91.31;100318.53;5584887;31;33608;-69
2023/06/28 06:19:45;;;;;;;6.93;2.25;;;;;;;17.73;88.07;100317.25;5584117;31;33707;-69
2023/06/28 06:22:49;;;;;;;4.15;2.00;;;;;;;17.74;87.98;100322.41;5586466;31;33814;-66
2023/06/28 06:25:52;;;;;;;9.00;2.03;;;;;;;17.87;86.42;100340.28;5571521;31;33240;-69
2023/06/28 06:28:55;;;;;;;3.47;1.80;;;;;;;17.94;87.83;100342.91;5590385;31;33946;-68
2023/06/28 06:31:57;;;;;;;9.68;2.10;;;;;;;17.80;87.50;100342.19;5579073;31;34286;-69
2023/06/28 06:35:01;;;;;;;3.50;1.70;;;;;;;17.84;87.19;100342.56;5582000;31;35015;-69
2023/06/28 06:38:03;;;;;;;11.00;2.20;;;;;;;17.81;84.09;100347.31;5573790;31;33513;-71
2023/06/28 06:41:06;;;;;;;2.80;1.80;;;;;;;17.91;86.01;100354.91;5583936;31;33056;-69
2023/06/28 06:44:09;;;;;;;9.48;2.00;;;;;;;18.00;84.70;100360.84;5603692;31;34634;-69
2023/06/28 06:47:12;;;;;;;8.57;1.85;;;;;;;18.03;87.68;100355.87;5591262;31;33896;-67
2023/06/28 06:50:15;;;;;;;10.80;1.92;;;;;;;17.86;85.09;100356.59;5578082;31;33749;-70
2023/06/28 06:53:18;;;;;;;7.68;1.60;;;;;;;17.67;84.08;100359.16;5572336;31;33536;-70
2023/06/28 06:56:22;;;;;;;5.85;1.70;;;;;;;18.11;81.87;100370.88;5569965;31;33439;-70
2023/06/28 06:59:26;;;;;;;7.40;2.03;;;;;;;17.73;81.37;100366.37;5574539;31;33644;-69
2023/06/28 07:02:31;;;;;;;4.72;1.52;;;;;;;17.65;83.95;100361.25;5567772;31;34337;-69
2023/06/28 07:05:34;;;;;;;5.05;1.73;;;;;;;17.85;80.80;100365.69;5578484;31;33941;-69
2023/06/28 07:08:37;;;;;;;9.70;1.67;;;;;;;17.95;79.83;100363.38;5584713;31;33796;-68
2023/06/28 07:11:41;;;;;;;6.37;1.92;;;;;;;17.89;80.43;100365.03;5576122;31;34203;-69
2023/06/28 07:14:44;;;;;;;7.15;1.90;;;;;;;17.92;81.29;100374.50;5579982;31;33486;-70
2023/06/28 07:17:47;;;;;;;5.97;1.70;;;;;;;18.17;81.75;100378.91;5582766;31;33707;-68
2023/06/28 07:20:50;;;;;;;8.05;1.92;;;;;;;17.83;82.26;100373.94;5580853;31;33751;-69
2023/06/28 07:23:54;;;;;;;8.82;1.98;;;;;;;18.20;79.77;100375.78;5578321;31;33902;-68
2023/06/28 07:26:57;;;;;;;7.75;1.62;;;;;;;18.32;79.62;100375.06;5579108;31;33711;-70
2023/06/28 07:30:01;;;;;;;8.38;1.92;;;;;;;18.20;82.81;100375.78;5579223;31;33757;-70
2023/06/28 07:33:04;;;;;;;4.93;1.70;;;;;;;18.31;80.12;100374.25;5585128;31;33960;-68
2023/06/28 07:36:08;;;;;;;8.43;1.75;;;;;;;17.98;82.15;100366.44;5575610;31;33813;-69
2023/06/28 07:39:11;;;;;;;11.45;1.75;;;;;;;17.69;84.17;100369.69;5584586;31;34413;-69
2023/06/28 07:42:14;;;;;;;5.03;1.30;;;;;;;18.31;80.84;100376.94;5571043;31;33662;-67
2023/06/28 07:45:17;;;;;;;9.77;1.80;;;;;;;18.06;79.04;100376.91;5576227;31;33706;-69
2023/06/28 07:48:20;;;;;;;5.35;1.65;;;;;;;17.86;81.03;100373.53;5581773;31;119708;-71
2023/06/28 07:51:22;;;;;;;8.63;1.52;;;;;;;17.88;81.01;100387.53;5585864;31;33796;-68
2023/06/28 07:54:25;;;;;;;3.87;1.65;;;;;;;18.13;80.13;100391.12;5585820;31;33767;-70
2023/06/28 07:57:36;;;;;;;4.03;1.20;;;;;;;17.97;78.74;100383.56;5576834;31;34082;-67
2023/06/28 08:00:39;;;;;;;9.07;1.60;;;;;;;17.85;80.24;100377.25;5580884;31;33932;-68
2023/06/28 08:03:43;;;;;;;4.60;1.40;;;;;;;17.91;82.23;100378.25;5580881;31;34935;-68
2023/06/28 08:06:46;;;;;;;16.27;2.05;;;;;;;18.27;75.79;100373.03;5570550;31;33968;-70
2023/06/28 08:09:49;;;;;;;5.80;1.60;;;;;;;18.45;77.28;100378.47;5569885;31;33466;-69
2023/06/28 08:12:52;;;;;;;5.45;1.50;;;;;;;18.86;71.56;100377.13;5585563;31;34869;-68
2023/06/28 08:15:55;;;;;;;12.55;1.73;;;;;;;18.89;71.69;100372.13;5584895;31;33815;-70
2023/06/28 08:18:58;;;;;;;5.28;1.20;;;;;;;20.63;66.05;100373.97;5581913;31;33931;-69
2023/06/28 08:22:03;;;;;;;6.35;1.60;;;;;;;20.69;60.04;100373.03;5584305;31;34096;-71
2023/06/28 08:25:06;;;;;;;4.15;1.30;;;;;;;21.30;59.42;100371.75;5588599;31;33983;-70
2023/06/28 08:28:09;;;;;;;4.72;1.40;;;;;;;21.66;56.80;100369.50;5593762;31;33801;-67
2023/06/28 08:31:13;;;;;;;2.87;1.30;;;;;;;21.42;56.54;100373.34;5592598;31;34617;-71
2023/06/28 08:34:16;;;;;;;5.05;1.25;;;;;;;21.39;57.36;100379.22;5585276;31;34827;-70
2023/06/28 08:37:19;;;;;;;2.75;1.30;;;;;;;20.51;60.14;100373.16;5585051;31;34304;-67
2023/06/28 08:40:24;;;;;;;3.45;1.50;;;;;;;20.25;62.41;100380.56;5584258;31;33713;-69
2023/06/28 08:43:27;;;;;;;3.90;1.60;;;;;;;19.56;65.98;100381.12;5586304;31;33901;-71
2023/06/28 08:46:30;;;;;;;21.70;1.83;;;;;;;19.59;65.97;100379.84;5585557;31;33716;-69
2023/06/28 08:49:36;;;;;;;5.82;1.70;;;;;;;19.93;67.25;100377.31;5585526;31;33892;-70
2023/06/28 08:52:41;;;;;;;5.82;1.73;;;;;;;20.03;65.23;100373.25;5592587;31;34764;-71
2023/06/28 08:55:46;;;;;;;6.72;1.52;;;;;;;19.80;67.67;100365.91;5595599;31;33552;-71
2023/06/28 08:58:49;;;;;;;6.95;1.90;;;;;;;20.49;65.90;100362.59;5587980;31;33759;-71
2023/06/28 09:01:58;;;;;;;5.25;1.90;;;;;;;20.53;65.36;100369.16;5579611;31;33786;-71
2023/06/28 09:05:02;;;;;;;3.77;1.43;;;;;;;19.99;65.76;100359.44;5583273;31;33782;-71
2023/06/28 09:08:06;;;;;;;5.82;1.52;;;;;;;19.85;67.84;100357.94;5572998;31;34224;-69
2023/06/28 09:11:11;;;;;;;7.47;1.65;;;;;;;19.94;67.36;100352.00;5591153;31;33832;-68
2023/06/28 09:14:14;;;;;;;4.03;1.55;;;;;;;20.23;65.86;100353.06;5589999;31;32884;-70
2023/06/28 09:17:16;;;;;;;4.65;1.60;;;;;;;20.04;67.53;100354.19;5593686;31;34605;-70
2023/06/28 09:20:20;;;;;;;4.60;1.60;;;;;;;21.48;61.73;100353.50;5593298;31;33921;-72
2023/06/28 09:23:26;;;;;;;4.22;1.48;;;;;;;21.99;58.68;100349.91;5587119;31;33623;-73
2023/06/28 09:26:33;;;;;;;4.78;1.50;;;;;;;22.04;59.07;100350.00;5567017;32;34239;-71
2023/06/28 09:29:36;;;;;;;6.07;1.37;;;;;;;22.70;56.09;100348.41;5574593;31;33466;-71
2023/06/28 09:32:39;;;;;;;3.47;1.20;;;;;;;24.77;51.30;100355.28;5594772;31;34642;-70
2023/06/28 09:35:42;;;;;;;6.10;1.20;;;;;;;24.58;48.99;100335.91;5598913;31;33855;-70
2023/06/28 09:38:46;;;;;;;5.85;1.23;;;;;;;25.50;46.13;100343.47;5606547;31;34981;-68
2023/06/28 09:41:50;;;;;;;6.45;1.58;;;;;;;24.23;42.94;100344.56;5596164;31;34396;-69
2023/06/28 09:44:56;;;;;;;5.05;1.20;;;;;;;24.49;43.82;100336.66;5586984;31;32109;-73
2023/06/28 09:48:00;;;;;;;2.50;1.00;;;;;;;25.77;40.90;100334.31;5574940;31;34452;-69
2023/06/28 09:51:07;;;;;;;3.92;1.40;;;;;;;27.38;37.74;100333.34;5575452;31;33827;-68
2023/06/28 09:54:10;;;;;;;4.05;1.15;;;;;;;25.58;40.68;100334.00;5579373;31;34262;-71
2023/06/28 09:57:13;;;;;;;7.35;1.00;;;;;;;27.58;36.79;100341.47;5585823;31;33811;-71
2023/06/28 10:00:17;;;;;;;3.28;1.00;;;;;;;28.00;36.96;100331.91;5585969;31;34510;-72
2023/06/28 10:03:25;;;;;;;4.00;0.98;;;;;;;26.31;39.58;100332.75;5580936;31;33515;-70
2023/06/28 10:06:35;;;;;;;3.87;1.30;;;;;;;28.07;37.64;100321.50;5611768;31;33776;-70
2023/06/28 10:09:41;;;;;;;5.70;1.20;;;;;;;28.24;36.42;100315.66;5605324;31;32826;-72
2023/06/28 10:12:45;;;;;;;1.83;1.08;;;;;;;27.02;38.25;100320.94;5607049;31;33887;-69
2023/06/28 10:15:51;;;;;;;3.58;1.00;;;;;;;25.73;38.57;100330.50;5606193;31;33637;-70
2023/06/28 10:18:54;;;;;;;5.97;1.00;;;;;;;25.60;39.88;100312.81;5606466;31;33691;-69
2023/06/28 10:21:57;;;;;;;8.68;1.23;;;;;;;25.26;41.31;100309.69;5606345;31;34747;-71
2023/06/28 10:25:02;;;;;;;2.35;1.10;;;;;;;26.55;39.81;100316.69;5606756;31;34240;-71
2023/06/28 10:28:05;;;;;;;1.48;0.70;;;;;;;29.24;34.94;100313.78;5606404;31;33759;-70
2023/06/28 10:31:08;;;;;;;3.85;1.00;;;;;;;28.65;34.10;100307.91;5606217;31;33737;-71
2023/06/28 10:34:14;;;;;;;3.90;1.12;;;;;;;27.74;36.07;100303.22;5593330;31;33716;-70
2023/06/28 10:37:24;;;;;;;2.12;1.00;;;;;;;28.02;36.52;100295.09;5567174;31;34451;-70
2023/06/28 10:40:27;;;;;;;2.33;1.10;;;;;;;29.87;33.01;100291.59;5577349;31;33733;-70
2023/06/28 10:43:30;;;;;;;4.20;1.12;;;;;;;26.91;36.75;100286.72;5586725;31;34716;-70
2023/06/28 10:46:35;;;;;;;3.87;1.17;;;;;;;28.42;34.88;100276.75;5587058;31;34191;-69
2023/06/28 10:49:42;;;;;;;3.58;1.02;;;;;;;28.05;35.48;100278.16;5586291;31;33730;-69
2023/06/28 10:52:46;;;;;;;3.78;1.00;;;;;;;29.33;33.96;100281.22;5586166;31;33806;-67
2023/06/28 10:56:12;;;;;;;5.05;1.00;;;;;;;29.21;33.46;100287.06;5586541;31;34754;-71
2023/06/28 10:59:15;;;;;;;3.75;0.95;;;;;;;28.79;33.70;100266.00;5590767;31;33819;-71
2023/06/28 11:03:07;;;;;;;4.90;1.17;;;;;;;28.32;33.33;100279.59;5578707;31;33758;-73
2023/06/28 11:06:12;;;;;;;4.72;1.10;;;;;;;28.56;34.01;100275.00;5572001;31;33488;-71
2023/06/28 11:09:17;;;;;;;6.20;1.08;;;;;;;28.40;34.19;100268.88;5590452;31;33717;-71
2023/06/28 11:12:20;;;;;;;6.25;1.20;;;;;;;27.52;33.62;100273.63;5586143;31;34773;-67
2023/06/28 11:15:29;;;;;;;1.58;0.90;;;;;;;28.95;33.65;100266.63;5585930;31;33629;-74
2023/06/28 11:18:32;;;;;;;6.25;1.23;;;;;;;28.73;33.42;100272.62;5585519;31;34505;-71
2023/06/28 11:21:35;;;;;;;4.95;2.33;;;;;;;28.13;34.44;100271.28;5585651;31;33717;-71
2023/06/28 11:24:37;;;;;;;10.55;1.37;;;;;;;27.89;35.46;100264.91;5586726;31;34110;-73
2023/06/28 11:27:40;;;;;;;2.75;1.08;;;;;;;27.94;35.97;100273.03;5584646;31;33595;-74
2023/06/28 11:30:48;;;;;;;3.12;1.10;;;;;;;26.48;37.74;100274.53;5606207;31;33839;-74
2023/06/28 11:33:54;;;;;;;2.20;1.08;;;;;;;28.66;35.35;100266.66;5606023;31;33973;-72
2023/06/28 11:36:57;;;;;;;4.65;0.90;;;;;;;28.59;33.53;100259.94;5586761;31;33850;-71
2023/06/28 11:40:02;;;;;;;4.25;1.25;;;;;;;27.36;35.00;100252.97;5584459;31;33958;-72
2023/06/28 11:43:06;;;;;;;2.87;1.00;;;;;;;28.96;32.32;100251.88;5586641;31;33164;-72
2023/06/28 11:46:09;;;;;;;1.48;0.90;;;;;;;29.52;31.72;100251.16;5585049;31;33488;-72
2023/06/28 11:49:13;;;;;;;7.22;1.20;;;;;;;29.04;33.28;100247.69;5586058;31;33733;-72
2023/06/28 11:52:17;;;;;;;5.60;1.10;;;;;;;26.35;35.45;100237.81;5578681;31;33660;-69
2023/06/28 11:55:21;;;;;;;4.22;0.98;;;;;;;26.89;35.82;100239.88;5576089;31;33348;-71
2023/06/28 11:58:33;;;;;;;5.72;1.08;;;;;;;25.68;36.08;100246.25;5585709;31;34096;-72
2023/06/28 12:01:36;;;;;;;2.55;0.90;;;;;;;28.10;32.91;100239.09;5585257;31;33988;-70
2023/06/28 12:04:54;;;;;;;2.70;0.90;;;;;;;28.18;32.90;100224.03;5585161;31;33714;-70
2023/06/28 12:07:57;;;;;;;3.75;1.10;;;;;;;29.14;32.19;100232.00;5585788;31;33600;-73
2023/06/28 12:11:06;;;;;;;3.35;1.17;;;;;;;28.43;32.77;100232.78;5584852;31;33751;-73
2023/06/28 12:14:12;;;;;;;2.40;1.02;;;;;;;28.64;32.99;100225.22;5583683;31;34253;-70
2023/06/28 12:17:17;;;;;;;3.85;1.25;;;;;;;31.32;29.85;100222.66;5594764;31;33930;-72
2023/06/28 12:20:21;;;;;;;10.70;1.45;;;;;;;32.10;28.77;100224.88;5582967;31;34260;-72
2023/06/28 12:23:24;;;;;;;2.90;1.08;;;;;;;32.15;28.82;100240.41;5585621;31;33863;-68
2023/06/28 12:26:27;;;;;;;2.42;0.80;;;;;;;31.37;28.75;100231.53;5585824;31;33806;-72
2023/06/28 12:29:35;;;;;;;4.75;1.05;;;;;;;27.41;32.89;100226.53;5588324;31;33554;-72
2023/06/28 12:32:47;;;;;;;3.37;1.00;;;;;;;29.69;30.60;100224.06;5587855;31;34493;-72
2023/06/28 12:35:50;;;;;;;2.15;0.90;;;;;;;31.86;28.05;100224.38;5588038;31;34535;-72
2023/06/28 12:38:52;;;;;;;1.87;0.88;;;;;;;30.75;28.75;100226.84;5588162;31;33713;-71
2023/06/28 12:42:01;;;;;;;2.87;0.85;;;;;;;27.24;33.33;100210.56;5588046;31;33873;-69
2023/06/28 12:45:04;;;;;;;3.30;1.02;;;;;;;27.82;33.40;100205.28;5588004;31;33839;-71
2023/06/28 12:48:07;;;;;;;3.97;0.90;;;;;;;28.45;32.57;100216.97;5587728;31;33798;-72
2023/06/28 12:51:10;;;;;;;2.67;1.35;;;;;;;30.59;30.13;100209.94;5588032;31;34263;-74
2023/06/28 12:54:14;;;;;;;3.45;1.05;;;;;;;30.93;28.91;100213.06;5586919;31;34645;-70
2023/06/28 12:57:17;;;;;;;5.18;1.17;;;;;;;29.46;30.67;100214.06;5588247;31;33625;-72
2023/06/28 13:00:20;;;;;;;5.37;1.10;;;;;;;30.64;29.84;100234.50;5587618;31;33745;-71
2023/06/28 13:03:22;;;;;;;2.97;0.88;;;;;;;32.98;25.74;100225.72;5587822;31;34257;-72
2023/06/28 13:06:25;;;;;;;1.90;1.02;;;;;;;30.48;27.97;100219.47;5587567;31;34587;-72
2023/06/28 13:09:28;;;;;;;1.92;1.00;;;;;;;26.19;34.07;100223.41;5587437;31;33552;-67
2023/06/28 13:12:31;;;;;;;7.62;1.10;;;;;;;27.42;32.72;100219.16;5587442;31;34424;-71
2023/06/28 13:15:33;;;;;;;3.58;1.17;;;;;;;29.59;29.62;100224.22;5587481;31;33943;-67
2023/06/28 13:18:36;;;;;;;5.43;0.90;;;;;;;28.57;31.57;100218.44;5587729;31;33810;-70
2023/06/28 13:21:39;;;;;;;3.85;1.12;;;;;;;26.41;35.65;100227.75;5587355;31;33713;-67
2023/06/28 13:24:42;;;;;;;7.72;1.15;;;;;;;25.79;37.18;100226.16;5575699;31;34251;-72
2023/06/28 13:27:45;;;;;;;7.10;1.10;;;;;;;26.66;35.68;100233.13;5573839;31;33728;-70
2023/06/28 13:30:51;;;;;;;3.22;0.90;;;;;;;28.52;33.31;100230.25;5579526;31;34583;-71
2023/06/28 13:33:53;;;;;;;3.17;1.05;;;;;;;32.28;28.10;100242.28;5574483;31;33608;-70
2023/06/28 13:36:56;;;;;;;5.03;1.00;;;;;;;32.04;27.82;100239.84;5576173;31;33725;-67
2023/06/28 13:40:02;;;;;;;4.45;0.90;;;;;;;28.58;29.21;100231.81;5586318;31;33767;-72
2023/06/28 13:43:05;;;;;;;5.18;0.85;;;;;;;27.62;29.67;100228.06;5587062;31;34446;-70
2023/06/28 13:46:08;;;;;;;1.95;0.82;;;;;;;28.83;27.81;100241.66;5585566;31;34304;-70
2023/06/28 13:49:11;;;;;;;4.35;1.00;;;;;;;28.24;28.94;100244.72;5577027;31;33727;-70
2023/06/28 13:52:13;;;;;;;9.18;1.30;;;;;;;25.98;33.88;100257.16;5585494;31;33560;-68
2023/06/28 13:55:16;;;;;;;5.90;1.33;;;;;;;26.06;37.78;100262.03;5586269;31;35246;-69
2023/06/28 13:58:19;;;;;;;6.55;1.27;;;;;;;27.46;36.44;100275.53;5605226;31;33678;-69
2023/06/28 14:01:22;;;;;;;8.75;1.37;;;;;;;27.59;36.33;100263.25;5588216;31;34399;-69
2023/06/28 14:04:26;;;;;;;12.23;1.60;;;;;;;28.90;35.06;100261.25;5572898;31;33688;-67
2023/06/28 14:07:31;;;;;;;7.93;1.58;;;;;;;28.66;34.76;100279.53;5568544;31;33915;-66
2023/06/28 14:10:34;;;;;;;11.23;1.30;;;;;;;24.12;42.23;100274.22;5568136;31;33618;-67
2023/06/28 14:13:37;;;;;;;12.32;1.15;;;;;;;23.01;44.62;100270.34;5578436;31;34349;-68